createdAt,value
2023-07-26T00:02:24.494Z,16.83
2023-07-26T00:07:28.443Z,16.85
2023-07-26T00:12:32.312Z,16.82
2023-07-26T00:17:37.511Z,16.62
2023-07-26T00:22:41.402Z,16.61
2023-07-26T00:27:45.220Z,16.47
2023-07-26T00:32:50.446Z,16.48
2023-07-26T00:37:54.299Z,16.44
2023-07-26T00:42:58.205Z,16.26
2023-07-26T00:48:04.045Z,16.30
2023-07-26T00:53:08.308Z,16.05
2023-07-26T00:58:13.161Z,16.03
2023-07-26T01:03:18.443Z,15.94
2023-07-26T01:08:33.159Z,15.87
2023-07-26T01:13:46.496Z,15.78
2023-07-26T01:18:51.889Z,15.72
2023-07-26T01:23:57.106Z,15.73
2023-07-26T01:29:00.918Z,15.79
2023-07-26T01:34:07.065Z,15.83
2023-07-26T01:39:13.292Z,15.76
2023-07-26T01:44:17.130Z,15.71
2023-07-26T01:49:22.311Z,15.68
2023-07-26T01:54:27.509Z,15.66
2023-07-26T01:59:31.331Z,15.64
2023-07-26T02:04:35.263Z,15.48
2023-07-26T02:09:40.636Z,15.51
2023-07-26T02:14:44.483Z,15.57
2023-07-26T02:19:48.484Z,15.61
2023-07-26T02:24:54.653Z,15.55
2023-07-26T02:29:58.463Z,15.30
2023-07-26T02:35:02.361Z,15.25
2023-07-26T02:40:08.460Z,15.32
2023-07-26T02:45:12.276Z,15.32
2023-07-26T02:50:16.347Z,15.31
2023-07-26T02:55:21.552Z,15.24
2023-07-26T03:00:25.374Z,15.20
2023-07-26T03:05:29.566Z,15.12
2023-07-26T03:10:36.235Z,14.99
2023-07-26T03:15:41.179Z,14.92
2023-07-26T03:20:47.582Z,14.85
2023-07-26T03:25:53.270Z,14.74
2023-07-26T03:30:57.157Z,14.66
2023-07-26T03:36:01.673Z,14.58
2023-07-26T03:41:06.842Z,14.46
2023-07-26T03:46:10.919Z,14.43
2023-07-26T03:51:15.033Z,14.34
2023-07-26T03:56:20.238Z,14.32
2023-07-26T04:01:24.043Z,14.31
2023-07-26T04:06:27.972Z,14.27
2023-07-26T04:11:33.166Z,14.21
2023-07-26T04:16:37.228Z,14.17
2023-07-26T04:21:41.207Z,14.13
2023-07-26T04:26:46.520Z,14.06
2023-07-26T04:31:50.339Z,14.07
2023-07-26T04:36:54.196Z,14.03
2023-07-26T04:41:59.486Z,14.11
2023-07-26T04:47:03.264Z,14.09
2023-07-26T04:52:07.529Z,14.19
2023-07-26T04:57:12.833Z,14.28
2023-07-26T05:02:16.611Z,14.28
2023-07-26T05:07:20.451Z,14.29
2023-07-26T05:12:25.652Z,14.28
2023-07-26T05:17:29.583Z,14.31
2023-07-26T05:22:33.372Z,14.39
2023-07-26T05:27:38.617Z,14.41
2023-07-26T05:32:42.419Z,14.61
2023-07-26T05:37:46.232Z,14.60
2023-07-26T05:42:51.961Z,14.72
2023-07-26T05:47:56.093Z,14.86
2023-07-26T05:53:00.005Z,14.96
2023-07-26T05:58:05.223Z,15.01
2023-07-26T06:03:09.108Z,15.03
2023-07-26T06:08:15.297Z,15.26
2023-07-26T06:13:20.872Z,15.28
2023-07-26T06:18:24.810Z,15.21
2023-07-26T06:23:28.604Z,14.99
2023-07-26T06:28:33.809Z,14.90
2023-07-26T06:33:38.355Z,14.91
2023-07-26T06:38:42.706Z,14.99
2023-07-26T06:43:48.741Z,14.92
2023-07-26T06:48:52.527Z,14.95
2023-07-26T06:53:56.369Z,15.00
2023-07-26T06:59:02.485Z,14.93
2023-07-26T07:04:13.653Z,15.02
2023-07-26T07:09:18.833Z,15.28
2023-07-26T07:14:24.025Z,15.44
2023-07-26T07:19:27.865Z,15.57
2023-07-26T07:24:31.739Z,15.79
2023-07-26T07:29:38.022Z,16.01
2023-07-26T07:34:43.592Z,16.37
2023-07-26T07:39:47.320Z,16.48
2023-07-26T07:44:52.594Z,16.80
2023-07-26T07:49:56.607Z,16.86
2023-07-26T07:55:00.516Z,17.00
2023-07-26T08:00:07.398Z,17.34
2023-07-26T08:05:15.163Z,17.41
2023-07-26T08:10:19.369Z,17.57
2023-07-26T08:15:24.693Z,17.66
2023-07-26T08:20:28.570Z,17.59
2023-07-26T08:25:32.650Z,17.94
2023-07-26T08:30:37.899Z,18.40
2023-07-26T08:35:41.767Z,18.69
2023-07-26T08:40:48.313Z,18.60
2023-07-26T08:45:55.169Z,18.26
2023-07-26T08:50:59.318Z,18.06
2023-07-26T08:56:03.392Z,17.92
2023-07-26T09:01:08.985Z,17.84
2023-07-26T09:06:12.900Z,17.77
2023-07-26T09:11:24.684Z,17.69
2023-07-26T09:16:34.228Z,17.72
2023-07-26T09:21:39.431Z,17.86
2023-07-26T09:26:44.308Z,18.23
2023-07-26T09:31:49.587Z,18.04
2023-07-26T09:36:55.753Z,18.41
2023-07-26T09:42:07.101Z,19.13
2023-07-26T09:47:12.566Z,18.78
2023-07-26T09:52:21.339Z,18.39
2023-07-26T09:57:25.665Z,18.57
2023-07-26T10:02:31.955Z,18.54
2023-07-26T10:07:38.039Z,18.54
2023-07-26T10:12:45.225Z,18.48
2023-07-26T10:17:53.471Z,18.62
2023-07-26T10:23:03.389Z,19.01
2023-07-26T10:28:07.813Z,20.07
2023-07-26T10:33:15.943Z,20.58
2023-07-26T10:38:20.388Z,21.20
2023-07-26T10:43:42.890Z,21.31
2023-07-26T10:48:49.529Z,20.98
2023-07-26T10:53:55.078Z,20.78
2023-07-26T10:59:19.688Z,21.76
2023-07-26T11:04:24.996Z,22.52
2023-07-26T11:09:30.995Z,22.30
2023-07-26T11:14:35.286Z,21.78
2023-07-26T11:19:50.314Z,21.93
2023-07-26T11:24:54.282Z,22.98
2023-07-26T11:30:02.361Z,23.74
2023-07-26T11:35:08.178Z,23.32
2023-07-26T11:40:13.803Z,22.78
2023-07-26T11:45:17.914Z,22.33
2023-07-26T11:50:23.718Z,23.62
2023-07-26T11:55:27.548Z,24.22
2023-07-26T12:00:33.060Z,24.11
2023-07-26T12:05:43.764Z,23.45
2023-07-26T12:10:49.036Z,24.14
2023-07-26T12:15:55.322Z,25.36
2023-07-26T12:21:04.553Z,25.91
2023-07-26T12:26:10.628Z,25.61
2023-07-26T12:31:20.042Z,26.16
2023-07-26T12:36:25.820Z,27.25
2023-07-26T12:41:29.850Z,26.91
2023-07-26T12:46:51.574Z,26.81
2023-07-26T12:52:00.635Z,26.69
2023-07-26T12:57:06.023Z,26.89
2023-07-26T13:02:10.085Z,27.34
2023-07-26T13:07:15.674Z,28.21
2023-07-26T13:12:19.534Z,28.12
2023-07-26T13:17:23.410Z,27.32
2023-07-26T13:22:28.712Z,27.13
2023-07-26T13:27:33.010Z,27.46
2023-07-26T13:32:37.391Z,28.44
2023-07-26T13:37:42.889Z,29.44
2023-07-26T13:42:46.972Z,29.04
2023-07-26T13:47:50.926Z,29.32
2023-07-26T13:52:56.190Z,28.53
2023-07-26T13:58:00.101Z,29.88
2023-07-26T14:03:05.616Z,30.04
2023-07-26T14:08:11.585Z,30.19
2023-07-26T14:13:15.518Z,29.23
2023-07-26T14:18:19.508Z,29.57
2023-07-26T14:23:24.870Z,29.12
2023-07-26T14:28:29.092Z,29.56
2023-07-26T14:33:32.958Z,29.87
2023-07-26T14:38:38.637Z,30.24
2023-07-26T14:43:42.383Z,31.15
2023-07-26T14:48:46.234Z,30.37
2023-07-26T14:53:51.393Z,31.54
2023-07-26T14:58:55.277Z,31.71
2023-07-26T15:04:03.070Z,31.76
2023-07-26T15:09:08.460Z,32.34
2023-07-26T15:14:12.224Z,32.50
2023-07-26T15:19:16.147Z,32.67
2023-07-26T15:24:21.315Z,32.92
2023-07-26T15:29:25.487Z,33.10
2023-07-26T15:34:30.117Z,32.24
2023-07-26T15:39:35.547Z,32.48
2023-07-26T15:44:39.287Z,32.45
2023-07-26T15:49:46.025Z,32.09
2023-07-26T15:54:52.075Z,31.22
2023-07-26T15:59:57.124Z,31.24
2023-07-26T16:05:03.991Z,31.61
2023-07-26T16:10:10.333Z,31.85
2023-07-26T16:20:20.786Z,30.65
2023-07-26T16:25:26.072Z,31.08
2023-07-26T16:30:29.845Z,31.37
2023-07-26T16:35:33.769Z,30.98
2023-07-26T16:40:40.791Z,31.14
2023-07-26T16:45:44.357Z,30.61
2023-07-26T16:50:48.227Z,30.47
2023-07-26T16:55:53.454Z,30.33
2023-07-26T17:00:58.032Z,29.59
2023-07-26T17:06:01.869Z,29.18
2023-07-26T17:11:07.009Z,28.54
2023-07-26T17:16:15.455Z,28.41
2023-07-26T17:21:19.602Z,28.39
2023-07-26T17:26:26.172Z,27.81
2023-07-26T17:31:30.537Z,27.28
2023-07-26T17:36:34.575Z,26.39
2023-07-26T17:41:40.013Z,26.28
2023-07-26T17:46:43.819Z,25.36
2023-07-26T17:51:47.689Z,25.76
2023-07-26T17:56:52.873Z,25.35
2023-07-26T18:01:56.626Z,25.23
2023-07-26T18:07:00.668Z,25.21
2023-07-26T18:12:06.801Z,25.09
2023-07-26T18:17:10.593Z,24.95
2023-07-26T18:22:14.811Z,24.78
2023-07-26T18:27:20.059Z,24.66
2023-07-26T18:32:23.805Z,24.48
2023-07-26T18:37:27.658Z,24.43
2023-07-26T18:42:32.775Z,24.27
2023-07-26T18:47:36.581Z,24.09
2023-07-26T18:52:40.347Z,23.90
2023-07-26T18:57:47.298Z,23.74
2023-07-26T19:02:52.515Z,23.58
2023-07-26T19:07:56.334Z,23.41
2023-07-26T19:13:01.447Z,23.33
2023-07-26T19:18:05.523Z,23.23
2023-07-26T19:23:09.359Z,23.13
2023-07-26T19:28:14.441Z,22.99
2023-07-26T19:33:18.184Z,22.90
2023-07-26T19:38:21.987Z,22.75
2023-07-26T19:43:27.126Z,22.60
2023-07-26T19:48:30.936Z,22.47
2023-07-26T19:53:34.688Z,22.32
2023-07-26T19:58:39.840Z,22.25
2023-07-26T20:03:43.649Z,22.10
2023-07-26T20:08:47.438Z,21.93
2023-07-26T20:13:52.652Z,21.76
2023-07-26T20:18:56.442Z,21.58
2023-07-26T20:24:00.199Z,21.42
2023-07-26T20:29:05.343Z,21.30
2023-07-26T20:34:09.104Z,21.19
2023-07-26T20:39:12.874Z,21.07
2023-07-26T20:44:18.120Z,20.96
2023-07-26T20:49:21.903Z,20.90
2023-07-26T20:54:25.702Z,20.79
2023-07-26T20:59:31.972Z,20.68
2023-07-26T21:04:36.181Z,20.61
2023-07-26T21:09:39.958Z,20.50
2023-07-26T21:14:45.619Z,20.48
2023-07-26T21:19:49.626Z,20.47
2023-07-26T21:24:53.665Z,20.46
2023-07-26T21:29:58.913Z,20.44
2023-07-26T21:35:02.725Z,20.39
2023-07-26T21:40:08.311Z,20.35
2023-07-26T21:45:14.133Z,20.26
2023-07-26T21:50:17.998Z,20.27
2023-07-26T21:55:21.802Z,20.16
2023-07-26T22:00:26.962Z,20.09
2023-07-26T22:05:30.732Z,20.03
2023-07-26T22:10:36.081Z,20.02
2023-07-26T22:15:41.282Z,19.95
2023-07-26T22:26:11.355Z,19.91
2023-07-26T22:31:19.370Z,19.86
2023-07-26T22:36:23.199Z,19.91
2023-07-26T22:41:26.976Z,19.89
2023-07-26T22:46:32.690Z,19.77
2023-07-26T22:51:36.910Z,19.77
2023-07-26T22:56:43.636Z,19.71
2023-07-26T23:01:48.775Z,19.75
2023-07-26T23:06:52.617Z,19.76
2023-07-26T23:11:56.375Z,19.67
2023-07-26T23:17:01.552Z,19.41
2023-07-26T23:22:07.172Z,19.32
2023-07-26T23:27:10.926Z,19.07
2023-07-26T23:32:16.229Z,19.00
2023-07-26T23:37:20.037Z,18.92
2023-07-26T23:42:23.813Z,18.92
2023-07-26T23:47:28.983Z,18.75
2023-07-26T23:52:32.773Z,18.58
2023-07-26T23:57:36.550Z,18.57
